Terminal Aerodrome Forecast
Issued by NWS

Home | Current Version | Previous Version | Text Only | Print | Product List | Glossary On
Versions: 1 2 3 4 5 6 7 8 9 10 11 12 13
000
FTUS45 KTFX 031120
TAFLWT
TAF
KLWT 031120Z 0312/0412 11011KT P6SM FEW250
     FM032100 12012G18KT P6SM SCT250
     FM040300 11009KT P6SM SCT080 BKN200=

USA.gov is the U.S. government's official web portal to all federal, state and local government web resources and services.